North Olmsted, OH (44070)

1:06 PM EDT on August 28, 2015 (GMT -0400)
Kilroy Estates | | Change Station
CLOSE
Current Station
Personal Weather Station
Location: North Olmsted, OH
Elevation: 755 ft
Nearby Weather Stations

Elev 755 ft 41.44 °N, 81.88 °W | Updated 3 minutes ago

Clear
Clear
78.1 °F
Feels Like 79 °F
N
4.2
Wind Variable Wind from SW

Today
High -- | Low -- °F
--% Chance of Precip.
Yesterday
High -- | Low -- °F
Precip. -- in
6:49 AM 8:07 PM
Waxing Gibbous, 98% visible
Pressure 30.22 in
Visibility 10.0 miles
Clouds Scattered Clouds 4100 ft
Scattered Clouds 25000 ft
Heat Index 79 °F
Dew Point 58 °F
Humidity 50%
Rainfall 0.00 in
Snow Depth Not available.
UV 7 out of 12
Pollen 9.60 out of 12
Air Quality Not available.
Flu Activity Not available.
METAR KCLE 281651Z 23005KT 10SM SCT041 SCT250 23/13 A3022 RMK AO2 SLP231 T02330133
Pressure 30.22 in
Visibility 10.0 miles
Clouds Scattered Clouds 4100 ft
Scattered Clouds 25000 ft
Heat Index 79 °F
Dew Point 58 °F
Humidity 50%
Rainfall 0.00 in
Snow Depth Not available.
UV 7 out of 12
Pollen 9.60 out of 12
Air Quality Not available.
Flu Activity Not available.
METAR KCLE 281651Z 23005KT 10SM SCT041 SCT250 23/13 A3022 RMK AO2 SLP231 T02330133

10-Day Weather Forecast

×

Almanac

Astronomy

Aug. 28, 2015 Rise Set
Actual Time
Civil Twilight
Nautical Twilight
Astronomical Twilight
Moon
Length of Visible Light
Length of Day
Tomorrow will be .
, % of the Moon is Illuminated

Today's Extremes

State Highs State Lows

Community

WunderPhotos

Upload Photos

1,850,427 photos uploaded!

WunderBlogs® & News

Nearby

Air Quality

  Air Quality AQ Index Pollutant
Not available.

Snow Depth

Station Depth Elevation

Earthquake Activity

City Distance Mag. Time & Date
Minimum magnitude displayed is 2.5.

Coastal Water Temperatures

Place Temperature

Stations

Nearby Weather Stations

Station Location Temp. Windchill Dew Point Humidity Wind Precip. Elev Updated Type